KEWN

Coastal Carolina Regional Airport

New Bern, North Carolina, USA
METAR KEWN 280054Z 20003KT 10SM FEW022 23/22 A3003 RMK AO2 SLP169 T02330222 $
Observed Flight Rules
May-28 @ 00:54 UTC (21 minutes ago) Visual Flight Rules
Wind Visibility Clouds
200° at 3 knots 10 miles
  • Few at 2,200' AGL
Temperatures Readings
Current 23°C / 73°F
Dewpoint 22°C / 72°F
Humidity 94%
Altimeter 30.03" Hg
Pressure 1016.9 hPa
Elevation 3
METAR KEWN 280054Z 20003KT 10SM FEW022 23/22 A3003 RMK AO2 SLP169 T02330222 $
Observed Flight Rules
May-28 @ 00:54 UTC
(21 minutes ago)
VFR
Wind Visibility
200° at 3 knots 10 miles
Clouds
  • Few at 2,200' AGL
Temperature Dewpoint
23°C / 73°F 22°C / 72°F
Humidity Altimeter Pressure
94% 30.03" Hg 1016.9 hPa